createdAt,value
2023-01-07T00:01:28.029Z,11.63
2023-01-07T00:03:56.657Z,10.05
2023-01-07T00:06:26.302Z,10.68
2023-01-07T00:08:55.438Z,10.80
2023-01-07T00:11:24.704Z,10.73
2023-01-07T00:13:54.868Z,9.93
2023-01-07T00:16:23.750Z,9.93
2023-01-07T00:18:51.774Z,12.02
2023-01-07T00:21:20.498Z,9.48
2023-01-07T00:23:48.221Z,9.57
2023-01-07T00:26:17.214Z,10.83
2023-01-07T00:28:46.193Z,9.85
2023-01-07T00:31:16.746Z,9.02
2023-01-07T00:33:56.635Z,8.82
2023-01-07T00:36:26.657Z,9.70
2023-01-07T00:38:56.549Z,9.50
2023-01-07T00:41:24.090Z,10.60
2023-01-07T00:43:51.895Z,9.45
2023-01-07T00:46:20.954Z,8.75
2023-01-07T00:48:48.614Z,9.38
2023-01-07T00:51:17.166Z,8.33
2023-01-07T00:53:44.665Z,8.18
2023-01-07T00:56:14.613Z,7.72
2023-01-07T00:58:42.180Z,8.20
2023-01-07T01:01:11.058Z,8.70
2023-01-07T01:03:40.589Z,7.83
2023-01-07T01:06:11.524Z,9.48
2023-01-07T01:08:40.868Z,7.78
2023-01-07T01:11:11.102Z,8.93
2023-01-07T01:13:38.700Z,7.93
2023-01-07T01:16:09.826Z,7.53
2023-01-07T01:18:37.421Z,7.95
2023-01-07T01:21:09.609Z,9.10
2023-01-07T01:23:37.238Z,8.18
2023-01-07T01:26:06.755Z,9.23
2023-01-07T01:28:34.495Z,9.57
2023-01-07T01:31:02.168Z,8.55
2023-01-07T01:33:38.328Z,7.88
2023-01-07T01:36:10.076Z,9.50
2023-01-07T01:38:37.930Z,8.90
2023-01-07T01:41:05.818Z,7.30
2023-01-07T01:43:35.768Z,7.10
2023-01-07T01:46:05.750Z,6.85
2023-01-07T01:48:35.609Z,7.63
2023-01-07T01:51:04.075Z,9.10
2023-01-07T01:53:35.418Z,8.13
2023-01-07T01:56:10.564Z,8.68
2023-01-07T01:58:41.781Z,9.95
2023-01-07T02:01:09.725Z,9.82
2023-01-07T02:03:38.798Z,8.32
2023-01-07T02:06:09.295Z,8.47
2023-01-07T02:08:37.906Z,10.13
2023-01-07T02:11:19.843Z,10.70
2023-01-07T02:14:00.767Z,10.55
2023-01-07T02:16:35.792Z,9.80
2023-01-07T02:19:29.551Z,9.47
2023-01-07T02:22:02.049Z,10.77
2023-01-07T02:24:50.048Z,9.18
2023-01-07T02:27:39.350Z,8.32
2023-01-07T02:30:41.603Z,9.43
2023-01-07T02:33:29.641Z,9.63
2023-01-07T02:36:11.569Z,9.85
2023-01-07T02:38:53.232Z,9.50
2023-01-07T02:41:29.017Z,7.90
2023-01-07T02:44:03.119Z,11.20
2023-01-07T02:46:37.119Z,7.97
2023-01-07T02:49:09.403Z,10.70
2023-01-07T02:51:38.495Z,8.52
2023-01-07T02:54:08.165Z,13.48
2023-01-07T02:56:50.556Z,9.93
2023-01-07T02:59:43.269Z,8.60
2023-01-07T03:02:28.646Z,9.95
2023-01-07T03:05:33.936Z,11.70
2023-01-07T03:08:15.402Z,8.40
2023-01-07T03:10:47.564Z,12.57
2023-01-07T03:13:20.171Z,11.53
2023-01-07T03:15:53.201Z,13.27
2023-01-07T03:18:26.083Z,12.05
2023-01-07T03:20:59.486Z,11.68
2023-01-07T03:23:29.653Z,12.82
2023-01-07T03:26:06.213Z,14.20
2023-01-07T03:28:37.323Z,11.75
2023-01-07T03:31:06.071Z,14.30
2023-01-07T03:33:39.621Z,12.10
2023-01-07T03:36:10.481Z,13.85
2023-01-07T03:38:39.125Z,12.10
2023-01-07T03:41:07.703Z,11.90
2023-01-07T03:43:34.871Z,11.40
2023-01-07T03:46:02.297Z,14.13
2023-01-07T03:48:29.520Z,12.32
2023-01-07T03:50:56.699Z,12.90
2023-01-07T03:53:25.497Z,13.65
2023-01-07T03:55:52.685Z,13.00
2023-01-07T03:58:19.858Z,10.23
2023-01-07T04:00:47.101Z,11.57
2023-01-07T04:03:18.923Z,12.40
2023-01-07T04:05:47.786Z,11.45
2023-01-07T04:08:15.284Z,9.77
2023-01-07T04:10:44.268Z,12.60
2023-01-07T04:13:13.256Z,11.88
2023-01-07T04:15:44.612Z,11.60
2023-01-07T04:18:11.996Z,11.23
2023-01-07T04:20:39.191Z,11.80
2023-01-07T04:23:06.382Z,11.38
2023-01-07T04:25:33.757Z,11.00
2023-01-07T04:28:05.605Z,12.00
2023-01-07T04:30:33.323Z,11.43
2023-01-07T04:33:00.736Z,11.77
2023-01-07T04:35:27.919Z,11.43
2023-01-07T04:37:55.223Z,11.07
2023-01-07T04:40:22.492Z,12.00
2023-01-07T04:42:49.810Z,12.60
2023-01-07T04:45:19.047Z,11.38
2023-01-07T04:47:47.053Z,10.60
2023-01-07T04:50:14.556Z,11.77
2023-01-07T04:52:41.781Z,10.40
2023-01-07T04:55:10.933Z,12.07
2023-01-07T04:57:38.395Z,10.68
2023-01-07T05:00:07.300Z,12.45
2023-01-07T05:02:36.397Z,11.30
2023-01-07T05:05:04.128Z,11.93
2023-01-07T05:07:31.700Z,9.90
2023-01-07T05:09:59.693Z,12.63
2023-01-07T05:12:28.494Z,13.57
2023-01-07T05:14:55.715Z,10.70
2023-01-07T05:17:22.908Z,12.17
2023-01-07T05:19:53.010Z,11.32
2023-01-07T05:22:20.254Z,12.25
2023-01-07T05:24:47.439Z,12.68
2023-01-07T05:27:16.124Z,12.52
2023-01-07T05:29:43.319Z,11.40
2023-01-07T05:32:10.518Z,11.93
2023-01-07T05:34:39.962Z,13.10
2023-01-07T05:37:08.862Z,11.88
2023-01-07T05:39:36.684Z,12.20
2023-01-07T05:42:05.747Z,12.13
2023-01-07T05:44:33.044Z,11.57
2023-01-07T05:47:00.274Z,11.75
2023-01-07T05:49:27.484Z,11.40
2023-01-07T05:51:54.668Z,12.48
2023-01-07T05:54:23.185Z,12.63
2023-01-07T05:56:50.407Z,10.73
2023-01-07T05:59:17.815Z,11.23
2023-01-07T06:01:45.008Z,11.07
2023-01-07T06:04:12.246Z,11.48
2023-01-07T06:06:39.484Z,11.73
2023-01-07T06:09:07.086Z,12.43
2023-01-07T06:11:35.622Z,12.95
2023-01-07T06:14:02.829Z,11.52
2023-01-07T06:16:30.039Z,11.63
2023-01-07T06:18:57.309Z,10.20
2023-01-07T06:21:24.554Z,10.50
2023-01-07T06:23:51.770Z,12.75
2023-01-07T06:26:19.084Z,11.15
2023-01-07T06:28:47.768Z,11.38
2023-01-07T06:31:14.974Z,11.97
2023-01-07T06:33:42.258Z,12.30
2023-01-07T06:36:09.810Z,13.18
2023-01-07T06:38:37.538Z,12.38
2023-01-07T06:41:05.172Z,10.73
2023-01-07T06:43:32.385Z,11.77
2023-01-07T06:46:01.225Z,9.32
2023-01-07T06:48:28.558Z,13.82
2023-01-07T06:50:55.807Z,10.15
2023-01-07T06:53:22.986Z,10.57
2023-01-07T06:55:50.923Z,12.53
2023-01-07T06:58:18.556Z,9.23
2023-01-07T07:00:45.826Z,10.45
2023-01-07T07:03:14.526Z,11.07
2023-01-07T07:05:41.799Z,11.57
2023-01-07T07:08:09.052Z,9.07
2023-01-07T07:10:37.443Z,11.18
2023-01-07T07:13:04.687Z,9.40
2023-01-07T07:15:31.982Z,9.35
2023-01-07T07:17:59.192Z,10.25
2023-01-07T07:20:27.729Z,9.03
2023-01-07T07:22:54.938Z,8.32
2023-01-07T07:25:22.107Z,8.80
2023-01-07T07:27:49.288Z,8.60
2023-01-07T07:30:16.821Z,8.80
2023-01-07T07:32:44.256Z,8.90
2023-01-07T07:35:12.444Z,9.25
2023-01-07T07:37:41.141Z,9.27
2023-01-07T07:40:09.743Z,7.45
2023-01-07T07:43:10.637Z,8.65
2023-01-07T07:45:25.070Z,8.83
2023-01-07T07:47:52.267Z,7.93
2023-01-07T07:50:19.463Z,10.82
2023-01-07T07:52:48.003Z,10.07
2023-01-07T07:55:20.240Z,8.55
2023-01-07T07:57:53.555Z,8.10
2023-01-07T08:00:20.908Z,8.98
2023-01-07T08:02:48.164Z,8.30
2023-01-07T08:05:15.458Z,8.43
2023-01-07T08:07:42.865Z,7.60
2023-01-07T08:10:11.411Z,6.77
2023-01-07T08:12:39.448Z,7.55
2023-01-07T08:15:08.121Z,9.10
2023-01-07T08:17:36.415Z,6.65
2023-01-07T08:20:03.932Z,7.93
2023-01-07T08:22:31.174Z,7.07
2023-01-07T08:24:58.358Z,8.30
2023-01-07T08:27:27.851Z,6.07
2023-01-07T08:29:55.725Z,5.88
2023-01-07T08:32:23.255Z,7.28
2023-01-07T08:34:50.580Z,6.07
2023-01-07T08:37:18.025Z,6.47
2023-01-07T08:39:45.295Z,6.75
2023-01-07T08:42:12.498Z,6.90
2023-01-07T08:44:41.036Z,6.10
2023-01-07T08:47:08.217Z,7.33
2023-01-07T08:49:35.462Z,7.07
2023-01-07T08:52:02.819Z,6.10
2023-01-07T08:54:30.037Z,6.05
2023-01-07T08:56:57.221Z,5.97
2023-01-07T08:59:24.446Z,6.87
2023-01-07T09:01:53.031Z,7.25
2023-01-07T09:04:20.299Z,7.05
2023-01-07T09:06:47.704Z,7.50
2023-01-07T09:09:16.572Z,7.72
2023-01-07T09:11:43.960Z,7.40
2023-01-07T09:14:11.244Z,8.52
2023-01-07T09:16:38.503Z,6.82
2023-01-07T09:19:07.077Z,7.68
2023-01-07T09:21:34.297Z,8.35
2023-01-07T09:24:01.535Z,6.07
2023-01-07T09:26:28.737Z,6.65
2023-01-07T09:28:56.026Z,7.32
2023-01-07T09:31:24.176Z,9.98
2023-01-07T09:33:51.737Z,6.70
2023-01-07T09:36:20.430Z,6.83
2023-01-07T09:38:47.662Z,6.55
2023-01-07T09:41:24.287Z,8.02
2023-01-07T09:44:00.035Z,7.07
2023-01-07T09:46:30.411Z,5.93
2023-01-07T09:49:01.982Z,6.07
2023-01-07T09:51:34.877Z,6.75
2023-01-07T09:54:04.096Z,5.85
2023-01-07T09:56:33.803Z,6.57
2023-01-07T09:59:02.367Z,6.68
2023-01-07T10:01:37.135Z,5.40
2023-01-07T10:04:19.155Z,5.30
2023-01-07T10:06:56.980Z,6.10
2023-01-07T10:09:35.664Z,5.97
2023-01-07T10:12:11.988Z,8.52
2023-01-07T10:15:00.819Z,6.87
2023-01-07T10:17:40.990Z,4.70
2023-01-07T10:20:17.439Z,6.05
2023-01-07T10:22:53.483Z,5.03
2023-01-07T10:25:22.787Z,5.65
2023-01-07T10:27:51.279Z,6.23
2023-01-07T10:30:21.918Z,5.95
2023-01-07T10:32:52.863Z,6.40
2023-01-07T10:35:24.349Z,5.38
2023-01-07T10:37:55.954Z,6.32
2023-01-07T10:40:31.646Z,5.10
2023-01-07T10:43:07.335Z,4.55
2023-01-07T10:45:44.882Z,4.53
2023-01-07T10:48:44.632Z,4.90
2023-01-07T10:51:23.515Z,5.82
2023-01-07T10:54:02.959Z,4.50
2023-01-07T10:56:32.036Z,5.72
2023-01-07T10:59:04.514Z,4.85
2023-01-07T11:01:35.520Z,6.47
2023-01-07T11:04:04.903Z,5.50
2023-01-07T11:06:39.506Z,3.80
2023-01-07T11:09:12.328Z,4.28
2023-01-07T11:11:40.788Z,5.25
2023-01-07T11:14:14.780Z,3.97
2023-01-07T11:16:47.305Z,3.95
2023-01-07T11:19:14.719Z,6.80
2023-01-07T11:21:44.768Z,4.60
2023-01-07T11:24:30.918Z,4.05
2023-01-07T11:27:12.517Z,4.93
2023-01-07T11:29:44.389Z,4.25
2023-01-07T11:32:21.905Z,5.17
2023-01-07T11:34:56.440Z,4.78
2023-01-07T11:37:36.480Z,3.90
2023-01-07T11:40:18.052Z,5.05
2023-01-07T11:42:51.210Z,4.10
2023-01-07T11:45:20.623Z,4.23
2023-01-07T11:47:52.492Z,4.65
2023-01-07T11:50:29.288Z,4.78
2023-01-07T11:52:59.164Z,4.70
2023-01-07T11:55:28.869Z,3.70
2023-01-07T11:58:27.609Z,4.43
2023-01-07T12:00:44.360Z,4.97
2023-01-07T12:03:13.143Z,3.67
2023-01-07T12:05:41.665Z,3.63
2023-01-07T12:08:19.066Z,3.55
2023-01-07T12:10:55.138Z,3.90
2023-01-07T12:13:25.605Z,3.80
2023-01-07T12:15:56.051Z,3.85
2023-01-07T12:18:50.431Z,3.70
2023-01-07T12:21:32.361Z,3.75
2023-01-07T12:24:14.417Z,3.30
2023-01-07T12:26:51.351Z,4.93
2023-01-07T12:29:28.681Z,3.67
2023-01-07T12:32:08.364Z,3.28
2023-01-07T12:34:46.918Z,3.67
2023-01-07T12:37:29.671Z,3.83
2023-01-07T12:40:10.960Z,4.03
2023-01-07T12:42:43.099Z,4.60
2023-01-07T12:45:19.086Z,4.10
2023-01-07T12:47:52.457Z,3.58
2023-01-07T12:50:26.156Z,3.83
2023-01-07T12:52:59.438Z,4.32
2023-01-07T12:55:30.932Z,4.03
2023-01-07T12:58:10.032Z,3.83
2023-01-07T13:00:43.252Z,4.28
2023-01-07T13:03:20.992Z,3.47
2023-01-07T13:05:53.959Z,4.00
2023-01-07T13:08:28.886Z,4.22
2023-01-07T13:11:02.114Z,4.20
2023-01-07T13:13:37.588Z,4.22
2023-01-07T13:16:05.529Z,3.30
2023-01-07T13:18:32.845Z,4.15
2023-01-07T13:21:06.871Z,4.35
2023-01-07T13:23:50.562Z,3.67
2023-01-07T13:26:30.858Z,3.92
2023-01-07T13:29:22.217Z,4.30
2023-01-07T13:32:16.641Z,3.55
2023-01-07T13:34:57.572Z,3.83
2023-01-07T13:37:40.560Z,3.95
2023-01-07T13:40:23.710Z,3.72
2023-01-07T13:42:54.844Z,4.53
2023-01-07T13:45:24.972Z,4.97
2023-01-07T13:47:54.365Z,4.25
2023-01-07T13:50:30.841Z,4.28
2023-01-07T13:53:01.029Z,4.00
2023-01-07T13:55:37.372Z,3.60
2023-01-07T13:58:34.416Z,4.15
2023-01-07T14:01:05.349Z,4.28
2023-01-07T14:03:40.565Z,5.63
2023-01-07T14:06:41.789Z,4.75
2023-01-07T14:09:37.199Z,4.30
2023-01-07T14:12:36.729Z,3.95
2023-01-07T14:15:49.672Z,3.75
2023-01-07T14:18:56.023Z,3.70
2023-01-07T14:21:35.970Z,4.32
2023-01-07T14:24:38.585Z,3.40
2023-01-07T14:27:27.894Z,5.05
2023-01-07T14:30:02.957Z,4.80
2023-01-07T14:32:36.591Z,4.75
2023-01-07T14:35:08.266Z,3.80
2023-01-07T14:37:37.388Z,4.10
2023-01-07T14:40:42.168Z,3.65
2023-01-07T14:43:46.527Z,4.68
2023-01-07T14:46:43.276Z,4.90
2023-01-07T14:49:26.163Z,4.72
2023-01-07T14:52:01.659Z,4.63
2023-01-07T14:55:00.729Z,4.55
2023-01-07T14:57:40.048Z,4.35
2023-01-07T15:00:45.164Z,5.47
2023-01-07T15:03:29.228Z,4.28
2023-01-07T15:06:11.398Z,4.73
2023-01-07T15:09:03.932Z,5.35
2023-01-07T15:11:51.049Z,5.80
2023-01-07T15:14:46.045Z,5.22
2023-01-07T15:17:15.259Z,5.75
2023-01-07T15:19:44.017Z,5.87
2023-01-07T15:22:36.001Z,5.15
2023-01-07T15:25:10.621Z,5.22
2023-01-07T15:27:46.347Z,5.15
2023-01-07T15:30:25.276Z,5.97
2023-01-07T15:33:03.256Z,6.03
2023-01-07T15:35:34.246Z,4.95
2023-01-07T15:38:04.895Z,6.65
2023-01-07T15:40:33.732Z,6.47
2023-01-07T15:43:00.971Z,6.25
2023-01-07T15:45:28.695Z,6.97
2023-01-07T15:48:05.849Z,5.63
2023-01-07T15:50:34.748Z,5.20
2023-01-07T15:53:15.939Z,5.68
2023-01-07T15:55:50.323Z,7.70
2023-01-07T15:58:20.071Z,5.77
2023-01-07T16:00:50.181Z,6.35
2023-01-07T16:03:19.251Z,5.70
2023-01-07T16:05:46.723Z,7.38
2023-01-07T16:08:17.236Z,8.25
2023-01-07T16:10:58.229Z,5.17
2023-01-07T16:13:25.499Z,6.00
2023-01-07T16:15:55.662Z,5.55
2023-01-07T16:18:23.098Z,4.50
2023-01-07T16:20:53.991Z,5.05
2023-01-07T16:23:23.340Z,4.60
2023-01-07T16:25:56.746Z,5.75
2023-01-07T16:28:27.474Z,4.80
2023-01-07T16:30:56.782Z,4.13
2023-01-07T16:33:27.080Z,4.35
2023-01-07T16:35:55.918Z,5.93
2023-01-07T16:38:24.121Z,4.32
2023-01-07T16:40:53.087Z,4.68
2023-01-07T16:43:32.386Z,5.07
2023-01-07T16:46:17.437Z,6.10
2023-01-07T16:48:45.058Z,4.20
2023-01-07T16:51:33.931Z,4.15
2023-01-07T16:54:29.664Z,4.93
2023-01-07T16:57:00.516Z,4.60
2023-01-07T16:59:30.117Z,3.72
2023-01-07T17:02:00.237Z,5.43
2023-01-07T17:04:29.997Z,3.92
2023-01-07T17:07:00.471Z,4.82
2023-01-07T17:09:34.413Z,4.03
2023-01-07T17:12:03.904Z,4.75
2023-01-07T17:14:45.423Z,4.90
2023-01-07T17:17:25.125Z,4.18
2023-01-07T17:19:57.533Z,4.05
2023-01-07T17:22:30.841Z,4.65
2023-01-07T17:25:08.509Z,4.88
2023-01-07T17:27:41.169Z,4.73
2023-01-07T17:30:16.518Z,6.10
2023-01-07T17:32:44.542Z,6.38
2023-01-07T17:35:20.006Z,6.70
2023-01-07T17:37:47.497Z,6.90
2023-01-07T17:40:15.434Z,5.37
2023-01-07T17:43:04.586Z,6.85
2023-01-07T17:45:32.483Z,6.53
2023-01-07T17:48:01.382Z,5.55
2023-01-07T17:50:35.535Z,6.88
2023-01-07T17:53:03.255Z,6.20
2023-01-07T17:55:33.919Z,6.97
2023-01-07T17:58:02.486Z,6.82
2023-01-07T18:00:33.181Z,6.43
2023-01-07T18:03:00.472Z,6.20
2023-01-07T18:05:27.745Z,7.33
2023-01-07T18:07:55.054Z,6.45
2023-01-07T18:10:26.015Z,6.25
2023-01-07T18:12:53.220Z,6.35
2023-01-07T18:15:24.591Z,6.18
2023-01-07T18:17:51.994Z,6.87
2023-01-07T18:20:20.976Z,5.88
2023-01-07T18:22:48.561Z,7.03
2023-01-07T18:25:18.502Z,6.15
2023-01-07T18:27:46.026Z,7.70
2023-01-07T18:30:16.104Z,6.73
2023-01-07T18:32:45.316Z,5.97
2023-01-07T18:35:13.330Z,5.95
2023-01-07T18:37:41.279Z,5.90
2023-01-07T18:40:09.946Z,6.28
2023-01-07T18:42:37.361Z,6.27
2023-01-07T18:45:06.554Z,5.80
2023-01-07T18:47:34.093Z,5.47
2023-01-07T18:50:02.990Z,6.80
2023-01-07T18:52:31.029Z,6.60
2023-01-07T18:54:58.319Z,6.77
2023-01-07T18:57:25.544Z,7.28
2023-01-07T18:59:52.756Z,6.18
2023-01-07T19:02:21.612Z,7.75
2023-01-07T19:04:49.666Z,7.75
2023-01-07T19:07:18.742Z,6.70
2023-01-07T19:09:46.078Z,6.80
2023-01-07T19:12:13.659Z,6.10
2023-01-07T19:14:41.297Z,5.78
2023-01-07T19:17:08.694Z,5.97
2023-01-07T19:19:47.454Z,5.73
2023-01-07T19:22:16.028Z,7.95
2023-01-07T19:24:44.814Z,6.72
2023-01-07T19:27:12.162Z,5.70
2023-01-07T19:29:39.401Z,5.78
2023-01-07T19:32:06.675Z,6.60
2023-01-07T19:34:33.949Z,6.28
2023-01-07T19:37:01.196Z,5.43
2023-01-07T19:39:28.439Z,5.03
2023-01-07T19:41:56.969Z,6.75
2023-01-07T19:44:24.192Z,5.87
2023-01-07T19:46:51.576Z,5.22
2023-01-07T19:49:18.795Z,6.85
2023-01-07T19:51:46.012Z,7.80
2023-01-07T19:54:15.901Z,6.82
2023-01-07T19:56:43.777Z,6.40
2023-01-07T19:59:12.393Z,6.45
2023-01-07T20:01:39.796Z,7.00
2023-01-07T20:04:08.160Z,8.45
2023-01-07T20:06:38.888Z,7.20
2023-01-07T20:09:10.682Z,7.60
2023-01-07T20:11:38.468Z,6.60
2023-01-07T20:14:07.241Z,8.05
2023-01-07T20:16:36.884Z,8.10
2023-01-07T20:19:05.261Z,6.45
2023-01-07T20:21:33.247Z,7.17
2023-01-07T20:24:00.562Z,6.68
2023-01-07T20:26:30.847Z,6.50
2023-01-07T20:28:59.663Z,7.50
2023-01-07T20:31:29.641Z,7.18
2023-01-07T20:33:58.421Z,7.00
2023-01-07T20:36:27.783Z,7.47
2023-01-07T20:38:55.312Z,6.47
2023-01-07T20:41:24.373Z,7.10
2023-01-07T20:43:52.998Z,6.60
2023-01-07T20:46:21.163Z,8.67
2023-01-07T20:48:48.907Z,6.28
2023-01-07T20:51:17.779Z,6.90
2023-01-07T20:53:46.920Z,7.75
2023-01-07T20:56:16.123Z,7.50
2023-01-07T20:58:44.141Z,8.10
2023-01-07T21:01:13.959Z,7.07
2023-01-07T21:03:42.244Z,6.68
2023-01-07T21:06:11.685Z,7.65
2023-01-07T21:08:40.512Z,6.93
2023-01-07T21:11:10.321Z,7.20
2023-01-07T21:13:37.521Z,8.10
2023-01-07T21:16:05.767Z,6.18
2023-01-07T21:18:34.854Z,6.85
2023-01-07T21:21:08.211Z,7.65
2023-01-07T21:23:35.403Z,6.43
2023-01-07T21:26:04.138Z,6.80
2023-01-07T21:28:31.573Z,5.95
2023-01-07T21:31:02.534Z,7.10
2023-01-07T21:33:29.710Z,6.13
2023-01-07T21:35:57.019Z,6.87
2023-01-07T21:38:24.277Z,8.30
2023-01-07T21:40:51.516Z,7.10
2023-01-07T21:43:20.052Z,7.65
2023-01-07T21:45:47.286Z,7.63
2023-01-07T21:48:14.649Z,7.17
2023-01-07T21:50:41.947Z,7.38
2023-01-07T21:53:09.144Z,6.85
2023-01-07T21:55:38.233Z,6.35
2023-01-07T21:58:05.456Z,7.55
2023-01-07T22:00:33.985Z,6.67
2023-01-07T22:03:01.200Z,7.13
2023-01-07T22:05:28.494Z,5.53
2023-01-07T22:07:55.697Z,7.22
2023-01-07T22:10:22.948Z,7.85
2023-01-07T22:12:50.177Z,6.13
2023-01-07T22:15:17.567Z,7.95
2023-01-07T22:17:46.080Z,8.30
2023-01-07T22:20:13.354Z,7.25
2023-01-07T22:22:40.607Z,6.90
2023-01-07T22:25:09.503Z,8.50
2023-01-07T22:27:36.698Z,8.13
2023-01-07T22:30:04.743Z,6.72
2023-01-07T22:32:31.913Z,7.28
2023-01-07T22:35:00.403Z,6.50
2023-01-07T22:37:27.698Z,5.83
2023-01-07T22:39:58.293Z,7.47
2023-01-07T22:42:29.798Z,7.45
2023-01-07T22:45:02.553Z,7.47
2023-01-07T22:47:35.233Z,7.13
2023-01-07T22:50:06.751Z,6.67
2023-01-07T22:52:36.329Z,6.43
2023-01-07T22:55:04.227Z,8.30
2023-01-07T22:57:31.988Z,8.18
2023-01-07T23:00:00.483Z,7.35
2023-01-07T23:02:28.211Z,6.50
2023-01-07T23:04:55.419Z,7.78
2023-01-07T23:07:23.950Z,7.55
2023-01-07T23:09:51.726Z,6.93
2023-01-07T23:12:18.941Z,6.63
2023-01-07T23:14:46.140Z,8.20
2023-01-07T23:17:13.371Z,8.52
2023-01-07T23:19:40.551Z,6.20
2023-01-07T23:22:07.718Z,6.68
2023-01-07T23:24:37.308Z,8.05
2023-01-07T23:27:04.835Z,6.53
2023-01-07T23:29:32.032Z,7.60
2023-01-07T23:31:59.309Z,5.93
2023-01-07T23:34:26.552Z,7.18
2023-01-07T23:36:53.734Z,6.93
2023-01-07T23:39:20.971Z,6.70
2023-01-07T23:41:49.683Z,6.97
2023-01-07T23:44:17.624Z,9.38
2023-01-07T23:46:44.876Z,6.82
2023-01-07T23:49:12.259Z,6.05
2023-01-07T23:51:40.359Z,6.70
2023-01-07T23:54:07.528Z,7.18
2023-01-07T23:56:35.153Z,8.27
2023-01-07T23:59:03.705Z,6.25
